New York, New York
Traffic Map
Current Weather Conditions
New York, New York
Clear
Clear
28°
Feels Like: 29°
Wind Chill: 28° Ceiling: Unl
Heat Index: 29° Visibility: 9mi
Dew Point: 18° Wind: 5mph
Humidity: 53% Direction: ° ()
Pressure: 30.05in Gusts: 0mph
Raw Report DataKNYC 271751Z AUTO VRB04KT 9SM CLR 28/18 A3005 RMK AO2 SLP166 T02830178 10283 20211 58018 $
Traffic Incident Summary
Active as of:
Severity:
Category:
InformationThere was an issue retrieving the traffic information for this location. Please try a different location or try again shortly.
Advertisements
Track Severe Weather on mobile